Time;durP1;ratioP1;P1;durP2;ratioP2;P2;SDS_P1;SDS_P2;PMS_P1;PMS_P2;Temp;Humidity;BMP_temperature;BMP_pressure;BME280_temperature;BME280_humidity;BME280_pressure;Samples;Min_cycle;Max_cycle;Signal;HPM_P1;HPM_P2
2021/12/20 00:02:19;;;;;;;16.13;9.20;;;5.20;99.90;;;;;;5114091;28;20443;-79
2021/12/20 00:04:50;;;;;;;17.17;10.50;;;5.20;99.90;;;;;;5114835;28;20827;-79
2021/12/20 00:07:17;;;;;;;17.60;10.73;;;5.00;99.90;;;;;;5113920;28;20467;-79
2021/12/20 00:09:44;;;;;;;17.33;10.17;;;5.00;99.90;;;;;;5113994;28;20448;-79
2021/12/20 00:12:11;;;;;;;17.20;10.73;;;5.10;99.90;;;;;;5113903;28;20447;-79
2021/12/20 00:14:38;;;;;;;16.37;10.10;;;5.20;99.90;;;;;;5114758;28;20559;-79
2021/12/20 00:17:06;;;;;;;18.87;10.70;;;5.10;99.90;;;;;;5114142;28;20803;-79
2021/12/20 00:19:33;;;;;;;18.33;11.63;;;5.10;99.90;;;;;;5114145;28;20786;-77
2021/12/20 00:22:00;;;;;;;14.87;9.03;;;5.00;99.90;;;;;;5113964;28;20534;-79
2021/12/20 00:24:27;;;;;;;15.20;10.83;;;5.00;99.90;;;;;;5114694;28;20491;-76
2021/12/20 00:26:54;;;;;;;19.43;11.30;;;4.90;99.90;;;;;;5114358;28;20927;-79
2021/12/20 00:29:21;;;;;;;17.87;10.30;;;5.00;99.90;;;;;;5113241;28;20444;-79
2021/12/20 00:31:47;;;;;;;17.20;10.17;;;5.00;99.90;;;;;;5113875;28;20538;-79
2021/12/20 00:34:16;;;;;;;16.27;10.00;;;5.10;99.90;;;;;;5113314;28;20545;-79
2021/12/20 00:36:43;;;;;;;14.03;8.87;;;5.10;99.90;;;;;;5114223;28;20827;-79
2021/12/20 00:41:54;;;;;;;20.87;11.20;;;5.20;99.90;;;;;;5114225;28;20785;-79
2021/12/20 00:44:21;;;;;;;17.10;9.90;;;5.20;99.90;;;;;;5113833;28;20454;-78
2021/12/20 00:46:47;;;;;;;18.30;10.97;;;5.30;99.90;;;;;;5114067;28;20457;-78
2021/12/20 00:49:16;;;;;;;16.20;11.53;;;5.10;99.90;;;;;;5112751;28;20530;-78
2021/12/20 00:51:42;;;;;;;19.13;11.23;;;5.20;99.90;;;;;;5114001;28;20439;-79
2021/12/20 00:54:09;;;;;;;17.77;10.30;;;5.10;99.90;;;;;;5113459;28;20810;-79
2021/12/20 00:56:36;;;;;;;17.47;10.83;;;5.10;99.90;;;;;;5114017;28;20839;-79
2021/12/20 00:59:03;;;;;;;20.47;11.20;;;5.30;99.90;;;;;;5113033;28;20447;-78
2021/12/20 01:01:30;;;;;;;15.47;9.63;;;5.20;99.90;;;;;;5114024;28;20872;-78
2021/12/20 01:03:57;;;;;;;22.27;12.07;;;5.20;99.90;;;;;;5113564;28;20530;-71
2021/12/20 01:06:26;;;;;;;15.87;11.00;;;5.20;99.90;;;;;;5113746;28;20460;-79
2021/12/20 01:08:53;;;;;;;18.33;11.20;;;5.20;99.90;;;;;;5113168;28;20960;-78
2021/12/20 01:11:24;;;;;;;17.33;11.47;;;5.10;99.90;;;;;;5113170;28;20467;-79
2021/12/20 01:13:51;;;;;;;17.80;11.73;;;5.00;99.90;;;;;;5113634;28;20439;-79
2021/12/20 01:16:18;;;;;;;16.67;10.27;;;5.10;99.90;;;;;;5112695;28;20487;-78
2021/12/20 01:18:45;;;;;;;16.73;10.03;;;4.90;99.90;;;;;;5112848;28;20478;-78
2021/12/20 01:21:13;;;;;;;15.83;9.97;;;5.10;99.90;;;;;;5112994;28;20450;-79
2021/12/20 01:23:42;;;;;;;19.30;10.50;;;5.00;99.90;;;;;;5113322;28;20534;-79
2021/12/20 01:26:08;;;;;;;21.07;11.60;;;5.00;99.90;;;;;;5112731;28;20550;-78
2021/12/20 01:28:35;;;;;;;19.43;12.00;;;5.00;99.90;;;;;;5112889;28;20451;-79
2021/12/20 01:31:02;;;;;;;18.50;11.10;;;4.90;99.90;;;;;;5112602;28;20563;-79
2021/12/20 01:33:29;;;;;;;18.63;12.30;;;4.80;99.90;;;;;;5113017;28;20447;-78
2021/12/20 01:35:58;;;;;;;19.23;11.87;;;4.70;99.90;;;;;;5112766;28;20491;-79
2021/12/20 01:38:25;;;;;;;20.67;10.53;;;4.80;99.90;;;;;;5112662;28;20443;-79
2021/12/20 01:40:54;;;;;;;18.17;12.60;;;4.90;99.90;;;;;;5112993;28;20987;-76
2021/12/20 01:43:21;;;;;;;19.80;11.63;;;4.90;99.90;;;;;;5099172;28;20793;-78
2021/12/20 01:45:50;;;;;;;17.20;11.40;;;4.90;99.90;;;;;;5112805;28;20538;-78
2021/12/20 01:48:18;;;;;;;22.43;12.60;;;4.90;99.90;;;;;;5111880;28;20818;-79
2021/12/20 01:51:13;;;;;;;18.67;10.77;;;4.80;99.90;;;;;;5112732;28;20454;-79
2021/12/20 01:53:40;;;;;;;18.90;11.20;;;4.80;99.90;;;;;;5112480;28;20488;-79
2021/12/20 01:56:10;;;;;;;16.83;11.30;;;4.60;99.90;;;;;;5112065;28;20572;-79
2021/12/20 01:58:37;;;;;;;19.87;11.63;;;4.60;99.90;;;;;;5112491;28;20470;-79
2021/12/20 02:04:02;;;;;;;20.37;10.90;;;4.70;99.90;;;;;;5072957;28;20436;-78
2021/12/20 02:06:35;;;;;;;18.77;11.20;;;4.70;99.90;;;;;;5112364;28;20451;-78
2021/12/20 02:09:05;;;;;;;19.33;12.57;;;4.80;99.90;;;;;;5111576;28;20475;-78
2021/12/20 02:11:33;;;;;;;18.87;10.03;;;4.70;99.90;;;;;;5112603;28;20515;-78
2021/12/20 02:14:00;;;;;;;19.43;11.83;;;4.70;99.90;;;;;;5111895;28;20454;-79
2021/12/20 02:16:27;;;;;;;19.17;11.03;;;4.80;99.90;;;;;;5112551;28;20818;-76
2021/12/20 02:18:54;;;;;;;17.63;10.27;;;4.80;99.90;;;;;;5111574;28;20448;-79
2021/12/20 02:21:23;;;;;;;23.10;11.53;;;4.80;99.90;;;;;;5111751;28;20448;-78
2021/12/20 02:23:50;;;;;;;17.90;10.07;;;4.80;99.90;;;;;;5099038;28;20452;-79
2021/12/20 02:26:19;;;;;;;21.53;11.40;;;4.80;99.90;;;;;;5111646;28;20857;-79
2021/12/20 02:28:48;;;;;;;20.23;10.67;;;4.80;99.90;;;;;;5111537;28;20896;-79
2021/12/20 02:37:17;;;;;;;18.93;10.90;;;4.80;99.90;;;;;;5111715;28;20617;-79
2021/12/20 02:39:45;;;;;;;24.40;12.27;;;4.70;99.90;;;;;;5111480;28;20439;-78
2021/12/20 02:42:16;;;;;;;18.93;10.80;;;4.60;99.90;;;;;;5111028;28;20451;-78
2021/12/20 02:44:48;;;;;;;18.27;11.50;;;4.60;99.90;;;;;;5111962;28;20482;-79
2021/12/20 02:47:26;;;;;;;18.07;11.80;;;4.50;99.90;;;;;;5111414;28;20479;-79
2021/12/20 02:49:53;;;;;;;18.43;10.10;;;4.60;99.90;;;;;;5111480;28;20470;-79
2021/12/20 02:52:21;;;;;;;22.37;11.37;;;4.50;99.90;;;;;;5111159;28;20452;-79
2021/12/20 02:54:48;;;;;;;20.43;12.73;;;4.60;99.90;;;;;;5111804;28;20549;-79
2021/12/20 02:57:16;;;;;;;18.80;12.07;;;4.50;99.90;;;;;;5111143;28;20534;-79
2021/12/20 02:59:42;;;;;;;20.27;11.73;;;4.70;99.90;;;;;;5111087;28;20939;-79
2021/12/20 03:02:11;;;;;;;17.40;10.80;;;4.60;99.90;;;;;;5110414;28;20551;-79
2021/12/20 03:04:39;;;;;;;21.33;11.70;;;4.60;99.90;;;;;;5111224;28;20446;-78
2021/12/20 03:07:09;;;;;;;21.00;11.83;;;4.70;99.90;;;;;;5110840;28;20546;-79
2021/12/20 03:09:41;;;;;;;16.63;10.60;;;4.60;99.90;;;;;;5111230;28;20440;-78
2021/12/20 03:12:12;;;;;;;24.43;14.13;;;4.50;99.90;;;;;;5110629;28;20951;-79
2021/12/20 03:14:43;;;;;;;22.10;12.53;;;4.50;99.90;;;;;;5111830;28;20440;-79
2021/12/20 03:17:11;;;;;;;20.17;13.10;;;4.50;99.90;;;;;;5110650;28;20967;-79
2021/12/20 03:19:38;;;;;;;27.07;12.73;;;4.60;99.90;;;;;;5110700;28;20935;-79
2021/12/20 03:22:06;;;;;;;18.20;11.67;;;4.60;99.90;;;;;;5110985;28;20444;-78
2021/12/20 03:24:33;;;;;;;20.97;11.67;;;4.70;99.90;;;;;;5111642;28;20554;-78
2021/12/20 03:27:02;;;;;;;20.73;12.83;;;4.70;99.90;;;;;;5111020;28;20452;-78
2021/12/20 03:29:28;;;;;;;23.23;11.43;;;4.70;99.90;;;;;;5110838;28;20527;-77
2021/12/20 03:31:56;;;;;;;20.43;12.57;;;4.80;99.90;;;;;;5111538;28;20463;-78
2021/12/20 03:34:23;;;;;;;19.10;13.20;;;4.80;99.90;;;;;;5111136;28;20452;-75
2021/12/20 03:36:50;;;;;;;19.83;11.47;;;4.70;99.90;;;;;;5097776;28;20517;-78
2021/12/20 03:39:18;;;;;;;19.27;11.67;;;4.70;99.90;;;;;;5109977;28;20995;-77
2021/12/20 03:41:45;;;;;;;18.40;12.10;;;4.60;99.90;;;;;;5111438;28;20448;-78
2021/12/20 03:44:13;;;;;;;22.07;11.50;;;4.60;99.90;;;;;;5110829;28;20444;-78
2021/12/20 03:46:40;;;;;;;23.90;12.77;;;4.70;99.90;;;;;;5111424;28;20455;-78
2021/12/20 03:49:08;;;;;;;25.90;13.57;;;5.00;99.90;;;;;;5110085;28;20815;-78
2021/12/20 03:51:34;;;;;;;19.73;11.03;;;5.10;99.90;;;;;;5111326;28;20446;-77
2021/12/20 03:54:01;;;;;;;19.77;11.70;;;5.10;99.90;;;;;;5110681;28;20801;-78
2021/12/20 03:56:28;;;;;;;19.43;11.23;;;5.10;99.90;;;;;;5111364;28;20510;-77
2021/12/20 03:58:56;;;;;;;22.03;11.83;;;5.10;99.90;;;;;;5110775;28;20801;-77
2021/12/20 04:01:25;;;;;;;20.30;12.23;;;5.00;99.90;;;;;;5111388;28;20479;-77
2021/12/20 04:03:52;;;;;;;24.60;12.03;;;5.10;99.90;;;;;;5111326;28;20483;-78
2021/12/20 04:06:19;;;;;;;20.27;11.20;;;5.20;99.90;;;;;;5110346;28;20461;-78
2021/12/20 04:08:48;;;;;;;22.73;11.40;;;5.20;99.90;;;;;;5110436;28;20454;-77
2021/12/20 04:11:15;;;;;;;16.57;9.90;;;5.10;99.90;;;;;;5110591;28;20500;-78
2021/12/20 04:13:42;;;;;;;22.03;12.47;;;5.10;99.90;;;;;;5112249;28;20443;-78
2021/12/20 04:16:09;;;;;;;26.10;11.70;;;4.90;99.90;;;;;;5114215;28;20569;-78
2021/12/20 04:18:37;;;;;;;21.10;10.63;;;4.80;99.90;;;;;;5113775;28;20454;-77
2021/12/20 04:21:04;;;;;;;19.47;11.60;;;4.80;99.90;;;;;;5114406;28;20450;-78
2021/12/20 04:23:31;;;;;;;21.40;11.57;;;4.80;99.90;;;;;;5114937;28;20446;-77
2021/12/20 04:25:58;;;;;;;18.77;11.23;;;4.80;99.90;;;;;;5113796;28;20447;-75
2021/12/20 04:28:25;;;;;;;19.10;10.93;;;4.60;99.90;;;;;;5114016;28;20444;-78
2021/12/20 04:30:51;;;;;;;19.27;11.30;;;4.80;99.90;;;;;;5114538;28;20593;-78
2021/12/20 04:33:18;;;;;;;19.87;10.80;;;4.80;99.90;;;;;;5113704;28;20450;-78
2021/12/20 04:35:47;;;;;;;22.73;11.73;;;4.70;99.90;;;;;;5113973;28;20578;-77
2021/12/20 04:38:14;;;;;;;21.40;11.80;;;4.80;99.90;;;;;;5113317;28;20447;-77
2021/12/20 04:40:41;;;;;;;16.67;10.00;;;4.80;99.90;;;;;;5113988;28;20450;-78
2021/12/20 04:43:08;;;;;;;18.53;9.60;;;4.70;99.90;;;;;;5113643;28;20444;-77
2021/12/20 04:45:36;;;;;;;23.17;12.70;;;4.70;99.90;;;;;;5114306;28;20440;-77
2021/12/20 04:48:04;;;;;;;22.50;13.30;;;4.60;99.90;;;;;;5113328;28;20932;-77
2021/12/20 04:50:31;;;;;;;16.83;10.23;;;4.70;99.90;;;;;;5114160;28;20805;-80
2021/12/20 04:53:00;;;;;;;19.73;10.17;;;4.60;99.90;;;;;;5113630;28;20454;-76
2021/12/20 04:55:30;;;;;;;19.67;10.40;;;4.70;99.90;;;;;;5114144;28;20453;-73
2021/12/20 04:57:57;;;;;;;20.70;10.60;;;4.70;99.90;;;;;;5113849;28;20448;-77
2021/12/20 05:00:27;;;;;;;17.53;9.93;;;4.60;99.90;;;;;;5114123;28;20458;-77
2021/12/20 05:02:54;;;;;;;21.30;9.73;;;4.70;99.90;;;;;;5114061;28;20439;-78
2021/12/20 05:05:22;;;;;;;17.47;10.90;;;4.60;99.90;;;;;;5113053;28;20478;-77
2021/12/20 05:07:49;;;;;;;18.40;11.40;;;4.70;99.90;;;;;;5113402;28;20451;-78
2021/12/20 05:10:27;;;;;;;25.40;10.63;;;5.00;99.90;;;;;;5112986;28;20459;-78
2021/12/20 05:12:55;;;;;;;21.90;11.70;;;4.80;99.90;;;;;;5113646;28;20468;-77
2021/12/20 05:15:22;;;;;;;24.13;12.20;;;4.80;99.90;;;;;;5112801;28;21002;-81
2021/12/20 05:17:49;;;;;;;16.17;9.97;;;4.80;99.90;;;;;;5113352;28;20484;-78
2021/12/20 05:20:16;;;;;;;18.67;10.00;;;4.90;99.90;;;;;;5112862;28;20440;-78
2021/12/20 05:22:44;;;;;;;15.80;10.10;;;5.00;99.90;;;;;;5113421;28;20444;-78
2021/12/20 05:25:11;;;;;;;17.97;10.37;;;5.00;99.90;;;;;;5112435;28;20446;-78
2021/12/20 05:27:40;;;;;;;18.53;9.90;;;5.00;99.90;;;;;;5113057;28;20801;-78
2021/12/20 05:30:09;;;;;;;17.30;10.50;;;4.90;99.90;;;;;;5112848;28;20440;-80
2021/12/20 05:32:37;;;;;;;17.90;10.60;;;4.80;99.90;;;;;;5113308;28;20448;-78
2021/12/20 05:35:05;;;;;;;17.37;9.77;;;4.80;99.90;;;;;;5112180;28;20539;-78
2021/12/20 05:37:32;;;;;;;21.73;12.03;;;4.80;99.90;;;;;;5112972;28;20497;-77
2021/12/20 05:39:59;;;;;;;24.37;11.60;;;4.80;99.90;;;;;;5112765;28;20803;-78
2021/12/20 05:42:26;;;;;;;20.60;11.87;;;4.50;99.90;;;;;;5112993;28;20459;-78
2021/12/20 05:44:55;;;;;;;19.30;10.30;;;4.50;99.90;;;;;;5113403;28;20534;-78
2021/12/20 05:47:23;;;;;;;22.57;11.23;;;4.60;99.90;;;;;;5112690;28;20556;-78
2021/12/20 05:49:50;;;;;;;25.00;11.80;;;4.70;99.90;;;;;;5123984;28;20440;-78
2021/12/20 05:52:17;;;;;;;20.03;11.73;;;4.70;99.90;;;;;;5117228;28;21017;-78
2021/12/20 05:54:44;;;;;;;18.50;10.77;;;4.70;99.90;;;;;;5113472;28;20444;-78
2021/12/20 05:57:11;;;;;;;18.40;9.80;;;4.50;99.90;;;;;;5116467;28;20994;-78
2021/12/20 05:59:38;;;;;;;20.97;11.60;;;4.50;99.90;;;;;;5117333;28;20458;-78
2021/12/20 06:02:06;;;;;;;19.30;10.20;;;4.70;99.90;;;;;;5112357;28;20443;-78
2021/12/20 06:04:33;;;;;;;21.10;11.50;;;4.70;99.90;;;;;;5112617;28;20932;-78
2021/12/20 06:07:00;;;;;;;17.37;9.13;;;4.70;99.90;;;;;;5113453;28;20814;-79
2021/12/20 06:09:28;;;;;;;19.97;10.63;;;4.70;99.90;;;;;;5112318;28;20534;-76
2021/12/20 06:11:59;;;;;;;17.07;10.63;;;4.70;99.90;;;;;;5112474;28;20451;-78
2021/12/20 06:14:26;;;;;;;15.30;9.90;;;4.80;99.90;;;;;;5112773;28;20458;-79
2021/12/20 06:16:55;;;;;;;18.00;11.13;;;4.90;99.90;;;;;;5112392;28;20533;-79
2021/12/20 06:19:23;;;;;;;19.57;10.43;;;4.80;99.90;;;;;;5111518;28;21003;-79
2021/12/20 06:21:50;;;;;;;18.70;10.70;;;4.70;99.90;;;;;;5112024;28;20444;-79
2021/12/20 06:24:17;;;;;;;22.73;11.77;;;4.70;99.90;;;;;;5111550;28;21227;-78
2021/12/20 06:26:44;;;;;;;19.50;10.87;;;4.60;99.90;;;;;;5112259;28;20451;-79
2021/12/20 06:29:11;;;;;;;19.43;10.60;;;4.70;99.90;;;;;;5111418;28;20780;-79
2021/12/20 06:31:38;;;;;;;19.17;10.87;;;4.60;99.90;;;;;;5111963;28;20533;-79
2021/12/20 06:34:04;;;;;;;22.13;10.53;;;4.50;99.90;;;;;;5111538;28;20451;-79
2021/12/20 06:36:33;;;;;;;17.50;10.80;;;4.50;99.90;;;;;;5111015;28;20496;-79
2021/12/20 06:38:59;;;;;;;20.83;11.03;;;4.60;99.90;;;;;;5111281;28;20498;-79
2021/12/20 06:41:26;;;;;;;23.93;10.60;;;4.60;99.90;;;;;;5112289;28;20447;-79
2021/12/20 06:43:53;;;;;;;18.37;9.93;;;4.60;99.90;;;;;;5112336;28;20444;-79
2021/12/20 06:46:22;;;;;;;21.83;9.90;;;4.50;99.90;;;;;;5111162;28;20444;-79
2021/12/20 06:48:49;;;;;;;16.30;9.60;;;4.50;99.90;;;;;;5111437;28;20461;-79
2021/12/20 06:51:15;;;;;;;23.07;10.73;;;4.60;99.90;;;;;;5111467;28;20443;-79
2021/12/20 06:53:44;;;;;;;18.83;10.03;;;4.60;99.90;;;;;;5112130;28;20452;-79
2021/12/20 06:56:12;;;;;;;25.03;11.20;;;4.60;99.90;;;;;;5111289;28;20439;-79
2021/12/20 06:58:40;;;;;;;14.77;9.13;;;4.60;99.90;;;;;;5111561;28;20450;-79
2021/12/20 07:01:07;;;;;;;18.03;10.30;;;4.50;99.90;;;;;;5111315;28;20454;-78
2021/12/20 07:03:34;;;;;;;19.33;10.17;;;4.40;99.90;;;;;;5111640;28;20448;-78
2021/12/20 07:06:01;;;;;;;19.87;11.53;;;4.40;99.90;;;;;;5097470;28;20538;-79
2021/12/20 07:08:27;;;;;;;21.17;10.63;;;4.40;99.90;;;;;;5111508;28;20546;-72
2021/12/20 07:10:56;;;;;;;18.07;11.10;;;4.40;99.90;;;;;;5111935;28;20537;-79
2021/12/20 07:13:22;;;;;;;27.23;11.33;;;4.40;99.90;;;;;;5111948;28;20512;-79
2021/12/20 07:15:50;;;;;;;14.87;10.23;;;4.40;99.90;;;;;;5111894;28;20451;-79
2021/12/20 07:18:17;;;;;;;21.40;14.57;;;4.50;99.90;;;;;;5110294;28;20965;-78
2021/12/20 07:20:44;;;;;;;15.83;10.60;;;4.50;99.90;;;;;;5111387;28;20539;-79
2021/12/20 07:23:11;;;;;;;17.00;10.20;;;4.70;99.90;;;;;;5110863;28;20458;-79
2021/12/20 07:25:38;;;;;;;19.43;10.80;;;4.60;99.90;;;;;;5111754;28;20534;-79
2021/12/20 07:28:07;;;;;;;14.63;9.87;;;4.70;99.90;;;;;;5110293;28;20451;-78
2021/12/20 07:30:34;;;;;;;18.83;9.93;;;4.70;99.90;;;;;;5111727;28;20450;-78
2021/12/20 07:33:01;;;;;;;20.17;11.87;;;4.60;99.90;;;;;;5110987;28;20805;-79
2021/12/20 07:35:28;;;;;;;22.30;10.60;;;4.60;99.90;;;;;;5111258;28;20822;-79
2021/12/20 07:37:57;;;;;;;18.33;8.90;;;4.70;99.90;;;;;;5111302;28;20491;-79
2021/12/20 07:40:24;;;;;;;20.63;11.00;;;4.90;99.90;;;;;;5111675;28;20531;-79
2021/12/20 07:42:51;;;;;;;18.17;10.60;;;4.90;99.90;;;;;;5111203;28;20451;-79
2021/12/20 07:45:20;;;;;;;17.67;9.97;;;4.90;99.90;;;;;;5110732;28;20951;-79
2021/12/20 07:47:47;;;;;;;16.83;9.80;;;5.00;99.90;;;;;;5112319;28;20559;-79
2021/12/20 07:50:14;;;;;;;20.60;11.30;;;5.10;99.90;;;;;;5114864;28;20453;-79
2021/12/20 07:52:41;;;;;;;20.53;9.20;;;5.20;99.90;;;;;;5115327;28;20450;-79
2021/12/20 07:55:09;;;;;;;16.67;10.10;;;5.10;99.90;;;;;;5114490;28;20444;-79
2021/12/20 07:57:37;;;;;;;20.20;10.73;;;5.10;99.90;;;;;;5114293;28;21001;-79
2021/12/20 08:00:06;;;;;;;19.33;10.20;;;5.10;99.90;;;;;;5114336;28;20919;-78
2021/12/20 08:02:34;;;;;;;17.90;10.20;;;5.20;99.90;;;;;;5114703;28;20534;-77
2021/12/20 08:05:01;;;;;;;18.30;9.03;;;5.10;99.90;;;;;;5114207;28;20489;-79
2021/12/20 08:07:28;;;;;;;21.47;11.43;;;4.90;99.90;;;;;;5114316;28;20534;-77
2021/12/20 08:09:55;;;;;;;13.93;9.00;;;5.00;99.90;;;;;;5115049;28;20451;-78
2021/12/20 08:12:22;;;;;;;18.83;9.87;;;5.00;99.90;;;;;;5113830;28;20456;-79
2021/12/20 08:14:48;;;;;;;18.77;10.30;;;5.10;99.90;;;;;;5114859;28;20486;-79
2021/12/20 08:17:15;;;;;;;20.43;9.43;;;5.10;99.90;;;;;;5113720;28;20832;-79
2021/12/20 08:19:43;;;;;;;18.20;10.67;;;5.20;99.90;;;;;;5114349;28;20440;-78
2021/12/20 08:22:10;;;;;;;14.60;8.93;;;5.10;99.90;;;;;;5114003;28;20538;-79
2021/12/20 08:24:37;;;;;;;16.17;10.37;;;5.20;99.90;;;;;;5114943;28;20872;-78
2021/12/20 08:27:05;;;;;;;18.70;10.80;;;5.20;99.90;;;;;;5114043;28;20546;-78
2021/12/20 08:29:32;;;;;;;17.17;8.30;;;5.20;99.90;;;;;;5114189;28;20439;-79
2021/12/20 08:32:01;;;;;;;18.30;10.77;;;5.20;99.90;;;;;;5114192;28;20447;-78
2021/12/20 08:34:30;;;;;;;21.03;11.50;;;5.30;99.90;;;;;;5114277;28;20542;-76
2021/12/20 08:37:00;;;;;;;14.83;8.80;;;5.30;99.90;;;;;;5113995;28;20487;-71
2021/12/20 08:39:27;;;;;;;19.50;10.13;;;5.40;99.90;;;;;;5113941;28;20479;-76
2021/12/20 08:41:55;;;;;;;21.13;10.47;;;5.40;99.90;;;;;;5114146;28;20454;-79
2021/12/20 08:44:21;;;;;;;17.60;10.30;;;5.40;99.90;;;;;;5113314;28;20451;-79
2021/12/20 08:46:48;;;;;;;23.63;10.97;;;5.30;99.90;;;;;;5114179;28;20491;-79
2021/12/20 08:49:15;;;;;;;22.90;11.57;;;5.20;99.90;;;;;;5113056;28;20519;-79
2021/12/20 08:51:43;;;;;;;17.23;9.20;;;5.30;99.90;;;;;;5114281;28;20546;-79
2021/12/20 08:54:11;;;;;;;19.23;10.17;;;5.40;99.90;;;;;;5113534;28;20454;-79
2021/12/20 08:56:38;;;;;;;18.73;9.20;;;5.40;99.90;;;;;;5113908;28;20448;-79
2021/12/20 08:59:07;;;;;;;16.23;10.20;;;5.50;99.90;;;;;;5112197;28;20480;-79
2021/12/20 09:01:35;;;;;;;21.27;11.27;;;;;;;;;;5113910;28;20450;-79
2021/12/20 09:04:02;;;;;;;21.00;12.93;;;;;;;;;;5113175;28;20454;-78
2021/12/20 09:06:31;;;;;;;34.23;12.53;;;;;;;;;;5113645;28;20456;-79
2021/12/20 09:08:58;;;;;;;20.90;12.77;;;;;;;;;;5112863;28;20942;-72
2021/12/20 09:11:27;;;;;;;20.77;12.17;;;;;;;;;;5113737;28;20531;-79
2021/12/20 09:13:54;;;;;;;17.63;11.33;;;;;;;;;;5113850;28;20451;-79
2021/12/20 09:16:22;;;;;;;22.03;11.50;;;;;;;;;;5112830;28;20453;-79
2021/12/20 09:18:49;;;;;;;23.87;12.40;;;;;;;;;;5113189;28;20479;-79
2021/12/20 09:21:16;;;;;;;20.33;10.73;;;;;;;;;;5113027;28;20487;-79
2021/12/20 09:23:44;;;;;;;27.00;14.27;;;;;;;;;;5113471;28;20450;-79
2021/12/20 09:26:11;;;;;;;19.90;11.77;;;;;;;;;;5113030;28;20444;-79
2021/12/20 09:28:40;;;;;;;23.10;12.83;;;;;;;;;;5112802;28;20957;-78
2021/12/20 09:31:09;;;;;;;20.27;12.73;;;;;;;;;;5112756;28;20927;-79
2021/12/20 09:33:37;;;;;;;21.83;12.27;;;;;;;;;;5113004;28;20450;-78
2021/12/20 09:36:05;;;;;;;19.80;11.33;;;;;;;;;;5112062;28;20971;-75
2021/12/20 09:38:32;;;;;;;24.40;12.93;;;;;;;;;;5099601;28;20963;-79
2021/12/20 09:41:15;;;;;;;20.90;11.80;;;;;;;;;;5112787;28;20443;-78
2021/12/20 09:43:45;;;;;;;18.90;11.97;;;;;;;;;;5113358;28;20481;-79
2021/12/20 09:46:13;;;;;;;19.43;11.27;;;;;;;;;;5112519;28;20443;-79
2021/12/20 09:48:43;;;;;;;26.60;14.80;;;;;;;;;;5112710;28;20554;-79
2021/12/20 09:51:10;;;;;;;26.63;13.20;;;;;;;;;;5112076;28;20440;-79
2021/12/20 09:53:38;;;;;;;24.00;11.97;;;;;;;;;;5112974;28;20443;-78
2021/12/20 09:56:06;;;;;;;24.57;13.60;;;;;;;;;;5111918;28;20527;-79
2021/12/20 09:58:36;;;;;;;23.20;12.20;;;;;;;;;;5112003;28;20488;-78
2021/12/20 10:01:05;;;;;;;24.53;12.20;;;;;;;;;;5111734;28;20451;-78
2021/12/20 10:03:32;;;;;;;21.20;11.30;;;;;;;;;;5112797;28;20448;-78
2021/12/20 10:05:59;;;;;;;22.07;12.17;;;;;;;;;;5111730;28;20555;-78
2021/12/20 10:08:32;;;;;;;18.10;11.27;;;;;;;;;;5112567;28;20884;-79
2021/12/20 10:11:01;;;;;;;18.93;12.33;;;;;;;;;;5098800;28;20448;-78
2021/12/20 10:13:29;;;;;;;29.50;14.77;;;;;;;;;;5112187;28;20452;-76
2021/12/20 10:15:57;;;;;;;29.37;14.80;;;;;;;;;;5112745;28;20448;-78
2021/12/20 10:18:27;;;;;;;25.67;13.73;;;;;;;;;;5111949;28;20479;-79
2021/12/20 10:20:55;;;;;;;23.50;12.40;;;;;;;;;;5112336;28;20443;-79
2021/12/20 10:23:24;;;;;;;21.50;12.90;;;;;;;;;;5111591;28;20511;-78
2021/12/20 10:25:53;;;;;;;22.90;13.90;;;;;;;;;;5112490;28;20440;-79
2021/12/20 10:28:22;;;;;;;24.53;13.23;;;;;;;;;;5111303;28;20447;-79
2021/12/20 10:30:50;;;;;;;20.60;12.87;;;;;;;;;;5112264;28;20455;-79
2021/12/20 10:33:18;;;;;;;26.60;13.43;;;;;;;;;;5111473;28;21105;-79
2021/12/20 10:35:49;;;;;;;19.87;11.50;;;;;;;;;;5111716;28;20458;-80
2021/12/20 10:38:25;;;;;;;19.33;11.77;;;;;;;;;;5110800;28;20812;-79
2021/12/20 10:40:54;;;;;;;14.30;8.80;;;;;;;;;;5111805;28;20447;-79
2021/12/20 10:43:22;;;;;;;19.47;10.10;;;;;;;;;;5111495;28;20432;-79
2021/12/20 10:45:51;;;;;;;15.10;9.77;;;;;;;;;;5111807;28;20496;-79
2021/12/20 10:48:18;;;;;;;15.17;9.13;;;;;;;;;;5110812;28;20483;-80
2021/12/20 10:50:47;;;;;;;12.60;8.67;;;;;;;;;;5111607;28;20440;-80
2021/12/20 10:53:16;;;;;;;17.57;8.60;;;;;;;;;;5111457;28;20443;-80
2021/12/20 10:55:45;;;;;;;11.37;6.90;;;;;;;;;;5111637;28;20483;-79
2021/12/20 10:58:28;;;;;;;10.43;6.60;;;;;;;;;;5110948;28;20566;-79
2021/12/20 11:01:22;;;;;;;13.53;6.10;;;;;;;;;;5111940;28;20432;-78
2021/12/20 11:03:57;;;;;;;11.43;6.97;;;;;;;;;;5111696;28;20953;-79
2021/12/20 11:06:39;;;;;;;14.53;7.80;;;;;;;;;;5112073;28;20473;-79
2021/12/20 11:09:15;;;;;;;17.03;8.00;;;;;;;;;;5111053;28;20455;-79
2021/12/20 11:11:47;;;;;;;15.87;9.07;;;;;;;;;;5112511;28;20477;-79
2021/12/20 11:14:15;;;;;;;14.90;9.00;;;;;;;;;;5112169;28;20455;-79
2021/12/20 11:16:43;;;;;;;10.47;6.83;;;;;;;;;;5111516;28;20444;-79
2021/12/20 11:19:12;;;;;;;16.80;9.30;;;;;;;;;;5110342;28;20571;-79
2021/12/20 11:21:46;;;;;;;13.40;8.00;;;;;;;;;;5111818;28;20440;-79
2021/12/20 11:24:13;;;;;;;13.20;8.30;;;;;;;;;;5115822;28;20465;-79
2021/12/20 11:26:41;;;;;;;15.17;8.00;;;;;;;;;;5115761;28;20950;-79
2021/12/20 11:29:08;;;;;;;13.03;7.57;;;;;;;;;;5115035;28;20451;-79
2021/12/20 11:31:37;;;;;;;16.43;7.90;;;;;;;;;;5115861;28;20534;-79
2021/12/20 11:34:04;;;;;;;12.47;8.70;;;;;;;;;;5115260;28;20505;-79
2021/12/20 11:36:32;;;;;;;12.03;7.87;;;;;;;;;;5116070;28;20483;-81
2021/12/20 11:39:01;;;;;;;16.40;9.20;;;;;;;;;;5116426;28;20494;-80
2021/12/20 11:41:29;;;;;;;13.43;7.70;;;;;;;;;;5117306;28;20440;-80
2021/12/20 11:43:57;;;;;;;11.47;6.83;;;;;;;;;;5117266;28;20447;-81
2021/12/20 11:46:26;;;;;;;11.17;6.87;;;;;;;;;;5116832;28;20443;-80
2021/12/20 11:48:54;;;;;;;13.30;7.93;;;;;;;;;;5116774;28;20458;-80
2021/12/20 11:51:21;;;;;;;15.60;8.70;;;;;;;;;;5115697;28;20444;-80
2021/12/20 11:53:48;;;;;;;13.63;7.10;;;;;;;;;;5115545;28;20542;-78
2021/12/20 11:56:20;;;;;;;16.53;7.33;;;;;;;;;;5114874;28;20473;-81
2021/12/20 11:58:48;;;;;;;13.87;7.20;;;;;;;;;;5114813;28;20467;-82
2021/12/20 12:01:16;;;;;;;10.10;6.60;;;;;;;;;;5114850;28;20451;-80
2021/12/20 12:03:53;;;;;;;10.23;6.90;;;;;;;;;;5115521;28;20538;-81
2021/12/20 12:06:25;;;;;;;10.50;6.00;;;;;;;;;;5114748;28;20465;-81
2021/12/20 12:08:58;;;;;;;12.20;7.23;;;;;;;;;;5116357;28;20537;-81
2021/12/20 12:11:32;;;;;;;14.97;6.90;;;;;;;;;;5115981;28;20435;-81
2021/12/20 12:14:07;;;;;;;16.00;9.07;;;;;;;;;;5115156;28;20938;-80
2021/12/20 12:16:49;;;;;;;13.77;9.53;;;;;;;;;;5117377;28;20457;-80
2021/12/20 12:19:36;;;;;;;21.40;9.83;;;;;;;;;;5107336;28;20471;-80
2021/12/20 12:22:03;;;;;;;15.03;9.70;;;;;;;;;;5123189;28;20522;-78
2021/12/20 12:24:54;;;;;;;19.67;11.03;;;;;;;;;;5118324;28;20450;-78
2021/12/20 12:27:24;;;;;;;14.30;8.73;;;;;;;;;;5094541;28;20459;-78
2021/12/20 12:30:10;;;;;;;17.80;9.87;;;;;;;;;;5116087;28;20512;-81
2021/12/20 12:32:37;;;;;;;17.10;10.13;;;;;;;;;;5114697;28;20535;-81
2021/12/20 12:35:05;;;;;;;13.50;8.27;;;;;;;;;;5112700;28;20534;-79
2021/12/20 12:37:36;;;;;;;14.70;9.40;;;;;;;;;;5114470;28;20559;-79
2021/12/20 12:40:23;;;;;;;13.93;8.77;;;;;;;;;;5113537;28;20482;-80
2021/12/20 12:42:55;;;;;;;19.63;9.37;;;;;;;;;;5114431;28;20512;-80
2021/12/20 12:45:37;;;;;;;12.63;8.27;;;;;;;;;;5114828;28;20435;-80
2021/12/20 12:48:26;;;;;;;15.63;8.40;;;;;;;;;;5112547;28;20459;-78
2021/12/20 12:50:54;;;;;;;17.80;8.63;;;;;;;;;;5114432;28;20447;-79
2021/12/20 12:53:36;;;;;;;17.60;8.57;;;;;;;;;;5113852;28;20443;-79
2021/12/20 12:56:18;;;;;;;15.83;8.73;;;;;;;;;;5113422;28;20923;-79
2021/12/20 12:58:46;;;;;;;14.17;8.70;;;;;;;;;;5112916;28;20487;-78
2021/12/20 13:01:21;;;;;;;15.83;9.30;;;;;;;;;;5113482;28;20444;-79
2021/12/20 13:03:49;;;;;;;12.30;7.40;;;;;;;;;;5114222;28;20526;-79
2021/12/20 13:06:19;;;;;;;14.20;6.50;;;;;;;;;;5112937;28;20500;-79
2021/12/20 13:08:52;;;;;;;9.47;6.40;;;;;;;;;;5113160;28;20944;-79
2021/12/20 13:11:21;;;;;;;11.73;6.43;;;;;;;;;;5113305;28;20810;-79
2021/12/20 13:13:54;;;;;;;9.33;6.50;;;;;;;;;;5113904;28;20451;-79
2021/12/20 13:16:26;;;;;;;13.27;7.00;;;;;;;;;;5113364;28;20448;-78
2021/12/20 13:18:58;;;;;;;18.43;8.43;;;;;;;;;;5113431;28;20479;-79
2021/12/20 13:21:37;;;;;;;16.27;8.57;;;;;;;;;;5113773;28;20452;-77
2021/12/20 13:24:14;;;;;;;10.23;6.20;;;;;;;;;;5101495;28;20447;-78
2021/12/20 13:26:41;;;;;;;16.10;8.30;;;;;;;;;;5113101;28;20450;-77
2021/12/20 13:29:15;;;;;;;14.17;8.90;;;;;;;;;;5112883;28;20447;-78
2021/12/20 13:31:43;;;;;;;13.27;8.23;;;;;;;;;;5113371;28;20476;-78
2021/12/20 13:34:14;;;;;;;14.23;7.80;;;;;;;;;;5112528;28;20448;-78